createdAt,value
2022-08-31T00:00:55.532Z,78.59
2022-08-31T00:05:55.087Z,80.83
2022-08-31T00:10:55.178Z,80.99
2022-08-31T00:15:54.851Z,82.39
2022-08-31T00:20:54.998Z,81.37
2022-08-31T00:25:57.861Z,82.69
2022-08-31T00:30:54.692Z,83.78
2022-08-31T00:35:54.729Z,82.08
2022-08-31T00:40:54.595Z,81.44
2022-08-31T00:45:54.531Z,81.03
2022-08-31T00:50:54.443Z,80.02
2022-08-31T00:55:54.349Z,80.83
2022-08-31T01:01:02.209Z,80.83
2022-08-31T01:05:54.141Z,82.69
2022-08-31T01:10:54.146Z,81.68
2022-08-31T01:15:54.334Z,81.44
2022-08-31T01:20:53.998Z,80.63
2022-08-31T01:25:56.991Z,82.73
2022-08-31T01:30:53.857Z,84.19
2022-08-31T01:35:54.056Z,82.79
2022-08-31T01:40:53.717Z,82.18
2022-08-31T01:45:53.694Z,81.64
2022-08-31T01:50:53.593Z,80.79
2022-08-31T01:55:53.521Z,80.69
2022-08-31T02:00:53.488Z,81.10
2022-08-31T02:06:28.029Z,81.74
2022-08-31T02:11:28.086Z,83.44
2022-08-31T02:16:28.081Z,83.84
2022-08-31T02:21:27.793Z,84.04
2022-08-31T02:26:27.761Z,84.39
2022-08-31T02:31:27.640Z,82.79
2022-08-31T02:36:27.703Z,82.69
2022-08-31T02:41:27.582Z,83.60
2022-08-31T02:46:27.410Z,82.55
2022-08-31T02:51:27.536Z,82.24
2022-08-31T02:56:30.259Z,82.45
2022-08-31T03:01:27.191Z,83.70
2022-08-31T03:06:27.259Z,82.55
2022-08-31T03:11:27.002Z,82.55
2022-08-31T03:16:27.096Z,82.24
2022-08-31T03:21:27.166Z,82.55
2022-08-31T03:26:26.886Z,82.45
2022-08-31T03:31:26.825Z,81.64
2022-08-31T03:36:26.704Z,81.94
2022-08-31T03:41:26.616Z,81.34
2022-08-31T03:46:28.249Z,81.74
2022-08-31T03:51:26.554Z,81.44
2022-08-31T03:56:29.474Z,83.37
2022-08-31T04:01:26.539Z,85.82
2022-08-31T04:06:26.398Z,83.68
2022-08-31T04:11:45.482Z,86.19
2022-08-31T04:16:27.218Z,85.68
2022-08-31T04:21:26.119Z,87.08
2022-08-31T04:26:26.059Z,86.43
2022-08-31T04:31:25.979Z,86.57
2022-08-31T04:36:26.004Z,86.33
2022-08-31T04:41:25.824Z,85.82
2022-08-31T04:46:26.083Z,86.68
2022-08-31T04:51:25.691Z,86.13
2022-08-31T04:56:28.737Z,86.98
2022-08-31T05:01:25.800Z,87.69
2022-08-31T05:06:33.757Z,83.98
2022-08-31T05:11:33.183Z,83.47
2022-08-31T05:16:25.666Z,85.68
2022-08-31T05:21:25.487Z,85.64
2022-08-31T05:26:26.811Z,86.90
2022-08-31T05:31:25.274Z,84.65
2022-08-31T05:36:25.304Z,82.75
2022-08-31T05:41:25.009Z,82.21
2022-08-31T05:46:25.187Z,81.26
2022-08-31T05:51:25.055Z,80.51
2022-08-31T05:56:27.963Z,79.97
2022-08-31T06:01:24.859Z,81.22
2022-08-31T06:06:24.883Z,79.53
2022-08-31T06:11:24.916Z,77.88
2022-08-31T06:16:25.625Z,77.55
2022-08-31T06:21:31.867Z,75.62
2022-08-31T06:26:24.432Z,77.24
2022-08-31T06:31:24.487Z,76.80
2022-08-31T06:36:24.294Z,76.16
2022-08-31T06:41:24.564Z,76.36
2022-08-31T06:46:24.255Z,75.15
2022-08-31T06:51:24.236Z,73.58
2022-08-31T06:56:27.127Z,73.34
2022-08-31T07:01:34.951Z,74.95
2022-08-31T07:06:25.004Z,74.65
2022-08-31T07:11:24.025Z,74.65
2022-08-31T07:16:23.857Z,73.71
2022-08-31T07:21:23.719Z,73.31
2022-08-31T07:26:23.751Z,72.03
2022-08-31T07:31:23.836Z,70.36
2022-08-31T07:36:23.579Z,71.73
2022-08-31T07:41:23.559Z,72.07
2022-08-31T07:46:23.428Z,72.57
2022-08-31T07:51:23.414Z,72.37
2022-08-31T07:56:26.379Z,70.26
2022-08-31T08:01:23.284Z,71.63
2022-08-31T08:06:23.146Z,69.85
2022-08-31T08:11:23.311Z,67.12
2022-08-31T08:16:23.261Z,67.12
2022-08-31T08:21:22.966Z,67.02
2022-08-31T08:26:22.898Z,66.32
2022-08-31T08:31:22.972Z,65.25
2022-08-31T08:36:22.949Z,64.62
2022-08-31T08:41:22.705Z,64.39
2022-08-31T08:46:34.554Z,64.03
2022-08-31T08:51:23.554Z,63.39
2022-08-31T08:56:33.371Z,63.59
2022-08-31T09:01:23.555Z,63.36
2022-08-31T09:06:22.412Z,62.34
2022-08-31T09:11:22.197Z,62.66
2022-08-31T09:16:22.339Z,62.56
2022-08-31T09:21:31.261Z,62.56
2022-08-31T09:26:22.149Z,64.42
2022-08-31T09:31:22.036Z,63.62
2022-08-31T09:36:21.949Z,64.12
2022-08-31T09:41:21.890Z,63.19
2022-08-31T09:46:21.859Z,62.26
2022-08-31T09:51:21.749Z,61.41
2022-08-31T09:56:24.771Z,61.51
2022-08-31T10:01:21.639Z,61.10
2022-08-31T10:06:21.600Z,60.48
2022-08-31T10:11:21.552Z,60.11
2022-08-31T10:16:21.544Z,59.78
2022-08-31T10:21:21.474Z,61.21
2022-08-31T10:26:22.548Z,60.61
2022-08-31T10:31:21.501Z,60.15
2022-08-31T10:36:21.277Z,58.38
2022-08-31T10:41:21.122Z,59.94
2022-08-31T10:46:21.242Z,57.46
2022-08-31T10:51:21.142Z,57.65
2022-08-31T10:56:24.274Z,55.93
2022-08-31T11:01:20.883Z,55.79
2022-08-31T11:06:20.897Z,54.14
2022-08-31T11:11:20.726Z,53.71
2022-08-31T11:16:20.852Z,53.49
2022-08-31T11:21:20.464Z,52.69
2022-08-31T11:26:21.303Z,53.78
2022-08-31T11:31:20.537Z,51.67
2022-08-31T11:36:20.465Z,50.85
2022-08-31T11:41:20.474Z,51.59
2022-08-31T11:46:20.306Z,51.82
2022-08-31T11:51:20.206Z,49.98
2022-08-31T11:56:23.127Z,50.40
2022-08-31T12:01:20.138Z,49.70
2022-08-31T12:06:20.210Z,48.46
2022-08-31T12:11:20.031Z,48.11
2022-08-31T12:16:20.384Z,47.56
2022-08-31T12:21:19.770Z,47.25
2022-08-31T12:26:19.688Z,47.30
2022-08-31T12:31:19.636Z,46.56
2022-08-31T12:36:20.414Z,47.60
2022-08-31T12:41:23.460Z,48.14
2022-08-31T12:46:20.479Z,49.08
2022-08-31T12:51:19.326Z,48.46
2022-08-31T12:56:22.439Z,48.71
2022-08-31T13:01:19.328Z,50.27
2022-08-31T13:06:19.248Z,47.84
2022-08-31T13:11:22.791Z,48.44
2022-08-31T13:16:19.174Z,47.70
2022-08-31T13:21:19.114Z,47.20
2022-08-31T13:26:19.450Z,48.61
2022-08-31T13:31:26.880Z,46.41
2022-08-31T13:36:26.552Z,47.20
2022-08-31T13:41:18.809Z,47.44
2022-08-31T13:46:18.882Z,47.92
2022-08-31T13:51:18.799Z,48.07
2022-08-31T13:56:21.595Z,48.08
2022-08-31T14:01:18.746Z,46.15
2022-08-31T14:06:18.531Z,46.33
2022-08-31T14:11:18.402Z,47.22
2022-08-31T14:16:18.291Z,46.01
2022-08-31T14:21:21.591Z,46.62
2022-08-31T14:26:18.357Z,46.23
2022-08-31T14:31:18.332Z,47.56
2022-08-31T14:36:18.097Z,47.86
2022-08-31T14:41:18.164Z,46.99
2022-08-31T14:46:18.821Z,48.21
2022-08-31T14:51:17.910Z,47.86
2022-08-31T14:56:20.786Z,48.49
2022-08-31T15:01:17.727Z,49.33
2022-08-31T15:06:17.591Z,49.40
2022-08-31T15:11:17.519Z,48.98
2022-08-31T15:16:17.493Z,49.08
2022-08-31T15:21:17.319Z,50.48
2022-08-31T15:26:17.334Z,50.87
2022-08-31T15:31:17.177Z,51.50
2022-08-31T15:36:17.146Z,52.07
2022-08-31T15:41:17.223Z,51.52
2022-08-31T15:46:17.837Z,52.22
2022-08-31T15:51:17.167Z,52.34
2022-08-31T15:56:20.102Z,51.95
2022-08-31T16:01:17.065Z,53.09
2022-08-31T16:06:16.929Z,51.84
2022-08-31T16:11:16.793Z,52.27
2022-08-31T16:16:16.905Z,52.47
2022-08-31T16:21:16.671Z,52.67
2022-08-31T16:26:19.976Z,52.76
2022-08-31T16:31:16.633Z,53.49
2022-08-31T16:36:16.467Z,53.89
2022-08-31T16:41:16.310Z,53.66
2022-08-31T16:46:39.602Z,54.19
2022-08-31T16:51:17.320Z,54.29
2022-08-31T16:56:19.188Z,53.49
2022-08-31T17:01:16.586Z,54.34
2022-08-31T17:06:16.058Z,53.74
2022-08-31T17:11:16.008Z,53.81
2022-08-31T17:16:16.075Z,53.74
2022-08-31T17:21:15.842Z,53.52
2022-08-31T17:26:15.792Z,54.17
2022-08-31T17:31:15.717Z,53.84
2022-08-31T17:36:15.773Z,54.34
2022-08-31T17:41:23.194Z,53.64
2022-08-31T17:46:22.965Z,53.67
2022-08-31T17:51:15.882Z,55.40
2022-08-31T17:56:20.950Z,56.79
2022-08-31T18:01:16.397Z,59.48
2022-08-31T18:06:15.296Z,58.45
2022-08-31T18:11:15.163Z,60.18
2022-08-31T18:16:15.225Z,62.87
2022-08-31T18:21:15.182Z,63.73
2022-08-31T18:26:15.083Z,65.80
2022-08-31T18:31:15.016Z,65.91
2022-08-31T18:36:14.839Z,65.20
2022-08-31T18:41:22.305Z,64.47
2022-08-31T18:46:14.707Z,64.57
2022-08-31T18:51:19.100Z,66.74
2022-08-31T18:56:17.691Z,66.94
2022-08-31T19:01:14.674Z,67.78
2022-08-31T19:06:14.549Z,68.18
2022-08-31T19:11:14.819Z,68.82
2022-08-31T19:16:15.708Z,69.62
2022-08-31T19:21:14.339Z,70.12
2022-08-31T19:26:15.629Z,69.72
2022-08-31T19:31:14.255Z,70.16
2022-08-31T19:36:14.236Z,70.56
2022-08-31T19:41:14.310Z,71.40
2022-08-31T19:46:14.289Z,71.40
2022-08-31T19:51:14.383Z,71.20
2022-08-31T19:56:17.329Z,70.39
2022-08-31T20:01:13.755Z,70.70
2022-08-31T20:06:13.623Z,70.19
2022-08-31T20:11:16.025Z,69.45
2022-08-31T20:16:13.810Z,70.19
2022-08-31T20:21:13.401Z,70.12
2022-08-31T20:26:13.407Z,69.72
2022-08-31T20:31:13.315Z,68.91
2022-08-31T20:36:13.411Z,70.59
2022-08-31T20:41:13.098Z,70.76
2022-08-31T20:46:13.185Z,69.55
2022-08-31T20:51:12.910Z,70.15
2022-08-31T20:56:17.412Z,66.66
2022-08-31T21:01:12.829Z,67.33
2022-08-31T21:06:20.259Z,65.96
2022-08-31T21:11:12.611Z,64.95
2022-08-31T21:16:12.902Z,65.06
2022-08-31T21:21:12.679Z,66.97
2022-08-31T21:26:20.172Z,64.42
2022-08-31T21:31:16.412Z,65.99
2022-08-31T21:36:13.457Z,65.92
2022-08-31T21:41:12.366Z,66.02
2022-08-31T21:46:12.275Z,67.10
2022-08-31T21:51:20.157Z,65.46
2022-08-31T21:56:23.080Z,65.33
2022-08-31T22:01:12.195Z,66.90
2022-08-31T22:06:12.079Z,66.27
2022-08-31T22:11:13.325Z,66.06
2022-08-31T22:16:14.165Z,65.53
2022-08-31T22:21:12.843Z,65.09
2022-08-31T22:26:19.308Z,63.53
2022-08-31T22:31:11.768Z,65.09
2022-08-31T22:36:11.609Z,65.59
2022-08-31T22:41:12.498Z,63.39
2022-08-31T22:46:11.543Z,63.82
2022-08-31T22:51:11.460Z,63.89
2022-08-31T22:56:14.262Z,64.12
2022-08-31T23:01:11.254Z,65.66
2022-08-31T23:06:11.204Z,65.22
2022-08-31T23:11:11.051Z,65.33
2022-08-31T23:16:11.073Z,67.91
2022-08-31T23:21:10.899Z,69.11
2022-08-31T23:26:11.309Z,67.94
2022-08-31T23:31:10.886Z,67.54
2022-08-31T23:36:10.782Z,67.87
2022-08-31T23:41:13.710Z,69.65
2022-08-31T23:46:10.750Z,71.73
2022-08-31T23:51:10.541Z,71.03
2022-08-31T23:56:13.522Z,70.96
